sensor_id;sensor_type;location;lat;lon;timestamp;pressure;altitude;pressure_sealevel;temperature;humidity
72110;BME280;59983;52.010;5.420;2022-08-06T00:02:23;102633.53;;;12.60;71.67
72110;BME280;59983;52.010;5.420;2022-08-06T00:04:56;102633.06;;;12.67;71.81
72110;BME280;59983;52.010;5.420;2022-08-06T00:07:23;102639.31;;;12.67;72.48
72110;BME280;59983;52.010;5.420;2022-08-06T00:09:52;102646.84;;;12.70;72.53
72110;BME280;59983;52.010;5.420;2022-08-06T00:12:30;102644.13;;;12.70;72.39
72110;BME280;59983;52.010;5.420;2022-08-06T00:15:03;102643.97;;;12.67;71.69
72110;BME280;59983;52.010;5.420;2022-08-06T00:17:39;102643.09;;;12.49;72.01
72110;BME280;59983;52.010;5.420;2022-08-06T00:20:06;102647.06;;;12.43;72.23
72110;BME280;59983;52.010;5.420;2022-08-06T00:22:35;102644.31;;;12.43;71.85
72110;BME280;59983;52.010;5.420;2022-08-06T00:25:02;102643.69;;;12.37;71.92
72110;BME280;59983;52.010;5.420;2022-08-06T00:27:30;102643.38;;;12.39;71.97
72110;BME280;59983;52.010;5.420;2022-08-06T00:30:06;102655.66;;;12.36;72.06
72110;BME280;59983;52.010;5.420;2022-08-06T00:32:44;102637.72;;;12.35;72.44
72110;BME280;59983;52.010;5.420;2022-08-06T00:35:18;102637.25;;;12.33;72.00
72110;BME280;59983;52.010;5.420;2022-08-06T00:37:47;102644.72;;;12.28;72.47
72110;BME280;59983;52.010;5.420;2022-08-06T00:40:28;102644.91;;;12.31;72.42
72110;BME280;59983;52.010;5.420;2022-08-06T00:43:01;102647.75;;;12.26;72.55
72110;BME280;59983;52.010;5.420;2022-08-06T00:45:35;102653.28;;;12.12;72.50
72110;BME280;59983;52.010;5.420;2022-08-06T00:48:12;102664.13;;;12.04;71.42
72110;BME280;59983;52.010;5.420;2022-08-06T00:50:58;102668.25;;;12.01;71.45
72110;BME280;59983;52.010;5.420;2022-08-06T00:53:27;102664.13;;;12.04;71.36
72110;BME280;59983;52.010;5.420;2022-08-06T00:56:00;102666.41;;;11.88;71.99
72110;BME280;59983;52.010;5.420;2022-08-06T00:58:36;102676.47;;;11.74;71.31
72110;BME280;59983;52.010;5.420;2022-08-06T01:01:07;102677.91;;;11.71;71.95
72110;BME280;59983;52.010;5.420;2022-08-06T01:03:44;102681.34;;;11.63;72.09
72110;BME280;59983;52.010;5.420;2022-08-06T01:06:20;102684.69;;;11.60;72.46
72110;BME280;59983;52.010;5.420;2022-08-06T01:09:07;102687.81;;;11.67;73.59
72110;BME280;59983;52.010;5.420;2022-08-06T01:11:36;102684.34;;;11.75;73.00
72110;BME280;59983;52.010;5.420;2022-08-06T01:14:03;102686.97;;;11.80;72.87
72110;BME280;59983;52.010;5.420;2022-08-06T01:16:38;102692.16;;;11.90;73.13
72110;BME280;59983;52.010;5.420;2022-08-06T01:25:01;102692.13;;;12.04;73.44
72110;BME280;59983;52.010;5.420;2022-08-06T01:27:58;102693.72;;;12.05;73.13
72110;BME280;59983;52.010;5.420;2022-08-06T01:30:35;102695.56;;;11.96;72.98
72110;BME280;59983;52.010;5.420;2022-08-06T01:33:07;102692.66;;;11.93;72.86
72110;BME280;59983;52.010;5.420;2022-08-06T01:35:44;102691.38;;;11.90;72.81
72110;BME280;59983;52.010;5.420;2022-08-06T01:38:33;102694.13;;;11.76;73.05
72110;BME280;59983;52.010;5.420;2022-08-06T01:41:11;102700.28;;;11.68;73.62
72110;BME280;59983;52.010;5.420;2022-08-06T01:43:40;102708.44;;;11.68;73.31
72110;BME280;59983;52.010;5.420;2022-08-06T01:46:30;102709.16;;;11.60;73.21
72110;BME280;59983;52.010;5.420;2022-08-06T01:49:00;102709.97;;;11.47;73.23
72110;BME280;59983;52.010;5.420;2022-08-06T01:51:49;102701.50;;;11.48;73.02
72110;BME280;59983;52.010;5.420;2022-08-06T01:54:40;102713.50;;;11.47;72.14
72110;BME280;59983;52.010;5.420;2022-08-06T01:57:09;102705.16;;;11.44;71.96
72110;BME280;59983;52.010;5.420;2022-08-06T01:59:52;102705.88;;;11.35;72.06
72110;BME280;59983;52.010;5.420;2022-08-06T02:02:24;102701.38;;;11.31;72.67
72110;BME280;59983;52.010;5.420;2022-08-06T02:04:55;102701.75;;;11.38;73.36
72110;BME280;59983;52.010;5.420;2022-08-06T02:07:39;102708.38;;;11.46;73.62
72110;BME280;59983;52.010;5.420;2022-08-06T02:10:30;102706.50;;;11.32;73.43
72110;BME280;59983;52.010;5.420;2022-08-06T02:13:01;102710.31;;;11.31;74.22
72110;BME280;59983;52.010;5.420;2022-08-06T02:15:30;102715.44;;;11.33;74.33
72110;BME280;59983;52.010;5.420;2022-08-06T02:18:17;102709.09;;;11.38;74.10
72110;BME280;59983;52.010;5.420;2022-08-06T02:21:06;102720.38;;;11.31;74.13
72110;BME280;59983;52.010;5.420;2022-08-06T02:23:53;102717.53;;;11.36;73.88
72110;BME280;59983;52.010;5.420;2022-08-06T02:26:22;102715.31;;;11.38;74.23
72110;BME280;59983;52.010;5.420;2022-08-06T02:28:59;102702.75;;;11.42;73.88
72110;BME280;59983;52.010;5.420;2022-08-06T02:31:26;102703.56;;;11.43;73.69
72110;BME280;59983;52.010;5.420;2022-08-06T02:33:52;102715.41;;;11.47;73.56
72110;BME280;59983;52.010;5.420;2022-08-06T02:36:42;102706.28;;;11.43;73.83
72110;BME280;59983;52.010;5.420;2022-08-06T02:39:23;102706.38;;;11.38;74.24
72110;BME280;59983;52.010;5.420;2022-08-06T02:42:15;102713.84;;;11.32;73.58
72110;BME280;59983;52.010;5.420;2022-08-06T02:45:06;102707.00;;;11.07;73.43
72110;BME280;59983;52.010;5.420;2022-08-06T02:48:04;102713.56;;;11.06;73.28
72110;BME280;59983;52.010;5.420;2022-08-06T02:50:41;102716.75;;;11.08;73.73
72110;BME280;59983;52.010;5.420;2022-08-06T02:53:15;102713.25;;;11.07;74.25
72110;BME280;59983;52.010;5.420;2022-08-06T02:56:04;102704.97;;;11.13;73.97
72110;BME280;59983;52.010;5.420;2022-08-06T02:58:35;102710.53;;;11.07;74.37
72110;BME280;59983;52.010;5.420;2022-08-06T03:01:14;102717.97;;;11.02;73.74
72110;BME280;59983;52.010;5.420;2022-08-06T03:03:52;102723.09;;;10.90;73.72
72110;BME280;59983;52.010;5.420;2022-08-06T03:06:27;102726.78;;;10.66;73.58
72110;BME280;59983;52.010;5.420;2022-08-06T03:08:56;102725.28;;;10.60;73.81
72110;BME280;59983;52.010;5.420;2022-08-06T03:11:25;102732.59;;;10.60;73.72
72110;BME280;59983;52.010;5.420;2022-08-06T03:13:59;102726.34;;;10.59;73.86
72110;BME280;59983;52.010;5.420;2022-08-06T03:16:29;102729.72;;;10.70;73.61
72110;BME280;59983;52.010;5.420;2022-08-06T03:19:03;102731.84;;;10.87;73.82
72110;BME280;59983;52.010;5.420;2022-08-06T03:21:51;102725.00;;;10.89;73.38
72110;BME280;59983;52.010;5.420;2022-08-06T03:24:23;102729.94;;;10.87;73.19
72110;BME280;59983;52.010;5.420;2022-08-06T03:26:54;102731.50;;;10.74;74.00
72110;BME280;59983;52.010;5.420;2022-08-06T03:29:24;102727.91;;;10.79;73.96
72110;BME280;59983;52.010;5.420;2022-08-06T03:31:51;102732.25;;;10.80;73.26
72110;BME280;59983;52.010;5.420;2022-08-06T03:34:39;102735.13;;;10.70;72.59
72110;BME280;59983;52.010;5.420;2022-08-06T03:37:08;102745.34;;;10.59;73.05
72110;BME280;59983;52.010;5.420;2022-08-06T03:39:41;102745.66;;;10.58;73.98
72110;BME280;59983;52.010;5.420;2022-08-06T03:42:12;102748.66;;;10.56;74.18
72110;BME280;59983;52.010;5.420;2022-08-06T03:44:39;102747.19;;;10.64;74.26
72110;BME280;59983;52.010;5.420;2022-08-06T03:47:23;102749.50;;;10.70;74.46
72110;BME280;59983;52.010;5.420;2022-08-06T03:50:22;102739.28;;;10.81;74.43
72110;BME280;59983;52.010;5.420;2022-08-06T03:53:18;102740.28;;;10.99;74.73
72110;BME280;59983;52.010;5.420;2022-08-06T03:55:52;102739.69;;;11.02;74.59
72110;BME280;59983;52.010;5.420;2022-08-06T03:58:23;102748.75;;;10.97;75.04
72110;BME280;59983;52.010;5.420;2022-08-06T04:00:59;102746.22;;;11.01;75.14
72110;BME280;59983;52.010;5.420;2022-08-06T04:03:30;102749.75;;;11.01;75.12
72110;BME280;59983;52.010;5.420;2022-08-06T04:06:07;102757.09;;;10.87;73.91
72110;BME280;59983;52.010;5.420;2022-08-06T04:08:45;102755.75;;;10.71;74.13
72110;BME280;59983;52.010;5.420;2022-08-06T04:11:13;102761.13;;;10.57;74.27
72110;BME280;59983;52.010;5.420;2022-08-06T04:14:01;102758.66;;;10.61;74.31
72110;BME280;59983;52.010;5.420;2022-08-06T04:16:33;102755.13;;;10.60;74.05
72110;BME280;59983;52.010;5.420;2022-08-06T04:19:04;102749.41;;;10.62;74.22
72110;BME280;59983;52.010;5.420;2022-08-06T04:21:38;102757.53;;;10.62;74.67
72110;BME280;59983;52.010;5.420;2022-08-06T04:24:25;102765.28;;;10.68;75.52
72110;BME280;59983;52.010;5.420;2022-08-06T04:26:58;102761.88;;;10.76;75.27
72110;BME280;59983;52.010;5.420;2022-08-06T04:29:25;102766.69;;;10.66;74.52
72110;BME280;59983;52.010;5.420;2022-08-06T04:32:13;102769.69;;;10.64;73.84
72110;BME280;59983;52.010;5.420;2022-08-06T04:34:59;102775.59;;;10.53;74.02
72110;BME280;59983;52.010;5.420;2022-08-06T04:37:48;102774.06;;;10.46;74.32
72110;BME280;59983;52.010;5.420;2022-08-06T04:40:19;102780.66;;;10.40;74.42
72110;BME280;59983;52.010;5.420;2022-08-06T04:43:07;102778.34;;;10.34;74.46
72110;BME280;59983;52.010;5.420;2022-08-06T04:45:34;102783.00;;;10.47;74.24
72110;BME280;59983;52.010;5.420;2022-08-06T04:48:23;102775.34;;;10.35;74.40
72110;BME280;59983;52.010;5.420;2022-08-06T04:50:50;102788.97;;;10.30;74.83
72110;BME280;59983;52.010;5.420;2022-08-06T04:53:20;102780.47;;;10.37;75.24
72110;BME280;59983;52.010;5.420;2022-08-06T04:56:07;102798.19;;;10.48;74.94
72110;BME280;59983;52.010;5.420;2022-08-06T04:58:41;102790.94;;;10.43;75.14
72110;BME280;59983;52.010;5.420;2022-08-06T05:01:08;102795.09;;;10.55;74.66
72110;BME280;59983;52.010;5.420;2022-08-06T05:03:36;102806.69;;;10.60;74.50
72110;BME280;59983;52.010;5.420;2022-08-06T05:06:29;102800.84;;;10.67;74.82
72110;BME280;59983;52.010;5.420;2022-08-06T05:09:03;102808.63;;;10.73;74.80
72110;BME280;59983;52.010;5.420;2022-08-06T05:12:19;102807.75;;;10.78;75.08
72110;BME280;59983;52.010;5.420;2022-08-06T05:14:50;102817.38;;;10.84;75.59
72110;BME280;59983;52.010;5.420;2022-08-06T05:17:24;102810.47;;;10.92;75.42
72110;BME280;59983;52.010;5.420;2022-08-06T05:20:05;102820.56;;;11.05;75.47
72110;BME280;59983;52.010;5.420;2022-08-06T05:22:57;102818.16;;;11.17;75.92
72110;BME280;59983;52.010;5.420;2022-08-06T05:25:29;102824.50;;;11.26;75.80
72110;BME280;59983;52.010;5.420;2022-08-06T05:28:02;102823.00;;;11.34;76.30
72110;BME280;59983;52.010;5.420;2022-08-06T05:30:45;102822.09;;;11.39;76.18
72110;BME280;59983;52.010;5.420;2022-08-06T05:33:28;102819.47;;;11.47;76.18
72110;BME280;59983;52.010;5.420;2022-08-06T05:36:00;102822.50;;;11.59;76.76
72110;BME280;59983;52.010;5.420;2022-08-06T05:38:34;102823.81;;;11.76;77.39
72110;BME280;59983;52.010;5.420;2022-08-06T05:41:07;102828.84;;;11.96;77.23
72110;BME280;59983;52.010;5.420;2022-08-06T05:43:39;102826.34;;;12.22;77.51
72110;BME280;59983;52.010;5.420;2022-08-06T05:46:28;102832.75;;;12.40;77.62
72110;BME280;59983;52.010;5.420;2022-08-06T05:52:11;102841.59;;;12.68;77.41
72110;BME280;59983;52.010;5.420;2022-08-06T05:55:02;102834.03;;;12.87;77.70
72110;BME280;59983;52.010;5.420;2022-08-06T06:00:12;102847.75;;;13.04;77.81
72110;BME280;59983;52.010;5.420;2022-08-06T06:03:05;102849.59;;;13.18;77.85
72110;BME280;59983;52.010;5.420;2022-08-06T06:05:35;102843.09;;;13.27;77.79
72110;BME280;59983;52.010;5.420;2022-08-06T06:08:23;102842.97;;;13.41;77.56
72110;BME280;59983;52.010;5.420;2022-08-06T06:11:06;102844.94;;;13.49;77.01
72110;BME280;59983;52.010;5.420;2022-08-06T06:13:36;102843.41;;;13.66;76.63
72110;BME280;59983;52.010;5.420;2022-08-06T06:16:27;102845.38;;;13.82;76.42
72110;BME280;59983;52.010;5.420;2022-08-06T06:21:59;102850.88;;;14.08;75.88
72110;BME280;59983;52.010;5.420;2022-08-06T06:24:34;102860.34;;;14.20;75.42
72110;BME280;59983;52.010;5.420;2022-08-06T06:30:04;102868.91;;;14.53;74.57
72110;BME280;59983;52.010;5.420;2022-08-06T06:33:20;102859.09;;;14.69;75.74
72110;BME280;59983;52.010;5.420;2022-08-06T06:35:50;102862.63;;;14.78;75.32
72110;BME280;59983;52.010;5.420;2022-08-06T06:41:01;102867.25;;;14.95;73.99
72110;BME280;59983;52.010;5.420;2022-08-06T06:43:54;102854.84;;;15.06;74.19
72110;BME280;59983;52.010;5.420;2022-08-06T06:46:33;102856.41;;;15.16;73.34
72110;BME280;59983;52.010;5.420;2022-08-06T06:49:25;102855.56;;;15.33;72.77
72110;BME280;59983;52.010;5.420;2022-08-06T06:52:24;102856.28;;;15.50;72.92
72110;BME280;59983;52.010;5.420;2022-08-06T06:55:14;102855.94;;;15.61;73.21
72110;BME280;59983;52.010;5.420;2022-08-06T06:57:55;102865.97;;;15.77;72.43
72110;BME280;59983;52.010;5.420;2022-08-06T07:00:24;102868.22;;;15.84;72.29
72110;BME280;59983;52.010;5.420;2022-08-06T07:03:12;102867.16;;;15.97;72.41
72110;BME280;59983;52.010;5.420;2022-08-06T07:05:42;102870.91;;;16.13;71.75
72110;BME280;59983;52.010;5.420;2022-08-06T07:08:30;102862.63;;;16.22;71.21
72110;BME280;59983;52.010;5.420;2022-08-06T07:11:08;102862.38;;;16.36;70.47
72110;BME280;59983;52.010;5.420;2022-08-06T07:13:36;102873.38;;;16.48;71.06
72110;BME280;59983;52.010;5.420;2022-08-06T07:16:19;102876.03;;;16.57;70.48
72110;BME280;59983;52.010;5.420;2022-08-06T07:19:04;102879.84;;;16.64;69.17
72110;BME280;59983;52.010;5.420;2022-08-06T07:21:31;102872.72;;;16.72;67.94
72110;BME280;59983;52.010;5.420;2022-08-06T07:23:58;102876.19;;;16.81;67.24
72110;BME280;59983;52.010;5.420;2022-08-06T07:26:44;102872.47;;;16.98;65.58
72110;BME280;59983;52.010;5.420;2022-08-06T07:29:17;102873.03;;;17.04;67.29
72110;BME280;59983;52.010;5.420;2022-08-06T07:32:07;102874.41;;;17.10;67.16
72110;BME280;59983;52.010;5.420;2022-08-06T07:34:54;102875.13;;;17.19;66.72
72110;BME280;59983;52.010;5.420;2022-08-06T07:37:23;102877.66;;;17.36;65.76
72110;BME280;59983;52.010;5.420;2022-08-06T07:40:06;102875.84;;;17.52;64.90
72110;BME280;59983;52.010;5.420;2022-08-06T07:42:35;102873.69;;;17.58;64.38
72110;BME280;59983;52.010;5.420;2022-08-06T07:45:04;102875.66;;;17.70;64.12
72110;BME280;59983;52.010;5.420;2022-08-06T07:47:43;102876.34;;;17.79;62.13
72110;BME280;59983;52.010;5.420;2022-08-06T07:50:23;102868.53;;;17.81;60.39
72110;BME280;59983;52.010;5.420;2022-08-06T07:52:53;102869.56;;;17.89;59.82
72110;BME280;59983;52.010;5.420;2022-08-06T07:55:22;102877.09;;;18.04;61.28
72110;BME280;59983;52.010;5.420;2022-08-06T07:57:57;102873.19;;;18.17;60.03
72110;BME280;59983;52.010;5.420;2022-08-06T08:00:26;102872.69;;;18.27;58.49
72110;BME280;59983;52.010;5.420;2022-08-06T08:02:54;102875.28;;;18.36;58.34
72110;BME280;59983;52.010;5.420;2022-08-06T08:06:04;102872.25;;;18.65;59.35
72110;BME280;59983;52.010;5.420;2022-08-06T08:08:56;102881.50;;;18.89;58.45
72110;BME280;59983;52.010;5.420;2022-08-06T08:11:24;102882.09;;;18.54;55.02
72110;BME280;59983;52.010;5.420;2022-08-06T08:14:13;102886.84;;;18.42;56.25
72110;BME280;59983;52.010;5.420;2022-08-06T08:16:40;102888.16;;;18.60;55.44
72110;BME280;59983;52.010;5.420;2022-08-06T08:19:26;102882.38;;;18.77;54.14
72110;BME280;59983;52.010;5.420;2022-08-06T08:22:08;102880.28;;;18.86;54.07
72110;BME280;59983;52.010;5.420;2022-08-06T08:24:36;102882.88;;;18.95;54.44
72110;BME280;59983;52.010;5.420;2022-08-06T08:27:04;102892.47;;;19.17;53.53
72110;BME280;59983;52.010;5.420;2022-08-06T08:29:46;102888.66;;;19.21;52.48
72110;BME280;59983;52.010;5.420;2022-08-06T08:32:20;102884.06;;;19.57;52.45
72110;BME280;59983;52.010;5.420;2022-08-06T08:34:48;102897.66;;;19.66;50.84
72110;BME280;59983;52.010;5.420;2022-08-06T08:37:18;102891.31;;;19.34;50.45
72110;BME280;59983;52.010;5.420;2022-08-06T08:39:46;102890.88;;;19.00;50.19
72110;BME280;59983;52.010;5.420;2022-08-06T08:42:29;102893.72;;;19.04;51.45
72110;BME280;59983;52.010;5.420;2022-08-06T08:44:59;102891.94;;;19.11;51.47
72110;BME280;59983;52.010;5.420;2022-08-06T08:47:29;102895.88;;;19.26;52.26
72110;BME280;59983;52.010;5.420;2022-08-06T08:50:18;102891.59;;;19.76;51.96
72110;BME280;59983;52.010;5.420;2022-08-06T08:52:49;102903.78;;;20.10;52.14
72110;BME280;59983;52.010;5.420;2022-08-06T08:55:19;102897.00;;;20.23;48.59
72110;BME280;59983;52.010;5.420;2022-08-06T08:58:11;102889.84;;;20.03;48.33
72110;BME280;59983;52.010;5.420;2022-08-06T09:00:59;102893.91;;;19.74;47.42
72110;BME280;59983;52.010;5.420;2022-08-06T09:03:26;102892.56;;;19.52;48.02
72110;BME280;59983;52.010;5.420;2022-08-06T09:05:54;102895.78;;;19.38;49.32
72110;BME280;59983;52.010;5.420;2022-08-06T09:08:26;102897.22;;;19.79;47.40
72110;BME280;59983;52.010;5.420;2022-08-06T09:11:14;102903.72;;;20.06;46.10
72110;BME280;59983;52.010;5.420;2022-08-06T09:14:02;102895.72;;;20.01;47.58
72110;BME280;59983;52.010;5.420;2022-08-06T09:16:34;102899.66;;;19.85;49.10
72110;BME280;59983;52.010;5.420;2022-08-06T09:19:02;102896.63;;;20.05;49.13
72110;BME280;59983;52.010;5.420;2022-08-06T09:21:35;102895.25;;;20.15;49.72
72110;BME280;59983;52.010;5.420;2022-08-06T09:24:03;102896.16;;;20.58;48.34
72110;BME280;59983;52.010;5.420;2022-08-06T09:26:30;102898.38;;;20.91;45.68
72110;BME280;59983;52.010;5.420;2022-08-06T09:29:20;102897.09;;;20.65;45.59
72110;BME280;59983;52.010;5.420;2022-08-06T09:32:00;102902.34;;;20.71;46.40
72110;BME280;59983;52.010;5.420;2022-08-06T09:34:36;102896.69;;;21.06;46.07
72110;BME280;59983;52.010;5.420;2022-08-06T09:37:07;102903.84;;;21.10;41.99
72110;BME280;59983;52.010;5.420;2022-08-06T09:39:36;102898.44;;;21.37;43.98
72110;BME280;59983;52.010;5.420;2022-08-06T09:42:45;102902.88;;;21.68;41.94
72110;BME280;59983;52.010;5.420;2022-08-06T09:45:19;102892.47;;;21.58;41.60
72110;BME280;59983;52.010;5.420;2022-08-06T09:48:07;102894.81;;;21.82;42.34
72110;BME280;59983;52.010;5.420;2022-08-06T09:50:47;102894.59;;;21.94;40.33
72110;BME280;59983;52.010;5.420;2022-08-06T09:53:16;102891.69;;;22.10;40.04
72110;BME280;59983;52.010;5.420;2022-08-06T09:55:54;102895.00;;;21.70;40.19
72110;BME280;59983;52.010;5.420;2022-08-06T09:58:34;102892.56;;;21.38;43.85
72110;BME280;59983;52.010;5.420;2022-08-06T10:01:21;102887.75;;;21.35;44.83
72110;BME280;59983;52.010;5.420;2022-08-06T10:03:56;102897.53;;;21.10;45.54
72110;BME280;59983;52.010;5.420;2022-08-06T10:06:35;102897.94;;;20.89;44.45
72110;BME280;59983;52.010;5.420;2022-08-06T10:09:11;102896.31;;;20.65;46.30
72110;BME280;59983;52.010;5.420;2022-08-06T10:11:57;102893.47;;;20.61;46.83
72110;BME280;59983;52.010;5.420;2022-08-06T10:17:08;102892.75;;;20.64;44.99
72110;BME280;59983;52.010;5.420;2022-08-06T10:19:36;102896.25;;;21.04;41.86
72110;BME280;59983;52.010;5.420;2022-08-06T10:22:11;102889.38;;;21.17;39.49
72110;BME280;59983;52.010;5.420;2022-08-06T10:24:44;102895.34;;;21.19;39.78
72110;BME280;59983;52.010;5.420;2022-08-06T10:27:21;102880.94;;;21.52;40.46
72110;BME280;59983;52.010;5.420;2022-08-06T10:29:50;102876.09;;;21.72;40.19
72110;BME280;59983;52.010;5.420;2022-08-06T10:32:47;102873.19;;;21.88;40.66
72110;BME280;59983;52.010;5.420;2022-08-06T10:35:16;102871.84;;;22.04;38.64
72110;BME280;59983;52.010;5.420;2022-08-06T10:37:51;102885.16;;;21.99;39.89
72110;BME280;59983;52.010;5.420;2022-08-06T10:40:19;102875.28;;;21.98;39.96
72110;BME280;59983;52.010;5.420;2022-08-06T10:42:57;102884.56;;;21.56;41.07
72110;BME280;59983;52.010;5.420;2022-08-06T10:45:26;102882.31;;;21.39;42.21
72110;BME280;59983;52.010;5.420;2022-08-06T10:48:14;102885.41;;;21.14;42.05
72110;BME280;59983;52.010;5.420;2022-08-06T10:51:03;102880.56;;;21.08;43.19
72110;BME280;59983;52.010;5.420;2022-08-06T10:53:32;102884.47;;;21.07;42.22
72110;BME280;59983;52.010;5.420;2022-08-06T10:56:19;102875.47;;;21.10;41.04
72110;BME280;59983;52.010;5.420;2022-08-06T10:58:51;102878.06;;;21.22;40.74
72110;BME280;59983;52.010;5.420;2022-08-06T11:04:19;102872.22;;;21.50;40.21
72110;BME280;59983;52.010;5.420;2022-08-06T11:12:54;102864.31;;;21.75;40.61
72110;BME280;59983;52.010;5.420;2022-08-06T11:15:23;102861.19;;;21.50;40.16
72110;BME280;59983;52.010;5.420;2022-08-06T11:18:05;102867.06;;;21.48;41.88
72110;BME280;59983;52.010;5.420;2022-08-06T11:20:44;102864.31;;;21.48;42.65
72110;BME280;59983;52.010;5.420;2022-08-06T11:26:00;102867.78;;;21.68;39.55
72110;BME280;59983;52.010;5.420;2022-08-06T11:31:01;102865.84;;;21.46;39.56
72110;BME280;59983;52.010;5.420;2022-08-06T11:36:09;102863.31;;;21.37;39.78
72110;BME280;59983;52.010;5.420;2022-08-06T11:41:24;102865.75;;;21.19;39.81
72110;BME280;59983;52.010;5.420;2022-08-06T11:44:11;102861.13;;;21.24;40.04
72110;BME280;59983;52.010;5.420;2022-08-06T11:46:44;102864.81;;;21.31;42.26
72110;BME280;59983;52.010;5.420;2022-08-06T11:55:07;102862.19;;;21.38;39.71
72110;BME280;59983;52.010;5.420;2022-08-06T11:57:47;102854.91;;;21.53;40.57
72110;BME280;59983;52.010;5.420;2022-08-06T12:00:21;102849.00;;;21.81;38.54
72110;BME280;59983;52.010;5.420;2022-08-06T12:02:51;102848.69;;;22.13;40.08
72110;BME280;59983;52.010;5.420;2022-08-06T12:08:41;102841.50;;;22.08;38.82
72110;BME280;59983;52.010;5.420;2022-08-06T12:11:26;102840.31;;;22.39;40.08
72110;BME280;59983;52.010;5.420;2022-08-06T12:14:02;102839.22;;;22.47;38.02
72110;BME280;59983;52.010;5.420;2022-08-06T12:16:49;102838.34;;;22.40;39.17
72110;BME280;59983;52.010;5.420;2022-08-06T12:19:20;102842.81;;;22.51;37.73
72110;BME280;59983;52.010;5.420;2022-08-06T12:21:53;102837.91;;;22.75;38.33
72110;BME280;59983;52.010;5.420;2022-08-06T12:24:24;102826.00;;;23.08;37.50
72110;BME280;59983;52.010;5.420;2022-08-06T12:27:12;102826.16;;;23.26;36.84
72110;BME280;59983;52.010;5.420;2022-08-06T12:29:39;102833.66;;;23.77;37.71
72110;BME280;59983;52.010;5.420;2022-08-06T12:32:25;102829.00;;;23.98;35.67
72110;BME280;59983;52.010;5.420;2022-08-06T12:34:53;102830.72;;;23.59;35.18
72110;BME280;59983;52.010;5.420;2022-08-06T12:37:45;102838.22;;;23.51;35.42
72110;BME280;59983;52.010;5.420;2022-08-06T12:40:17;102834.72;;;23.13;35.90
72110;BME280;59983;52.010;5.420;2022-08-06T12:42:55;102835.63;;;22.80;36.71
72110;BME280;59983;52.010;5.420;2022-08-06T12:45:42;102838.00;;;22.45;38.55
72110;BME280;59983;52.010;5.420;2022-08-06T12:48:29;102840.81;;;22.85;39.50
72110;BME280;59983;52.010;5.420;2022-08-06T12:53:38;102833.03;;;22.98;38.49
72110;BME280;59983;52.010;5.420;2022-08-06T12:56:10;102833.28;;;23.30;36.07
72110;BME280;59983;52.010;5.420;2022-08-06T12:58:56;102826.03;;;23.11;37.96
72110;BME280;59983;52.010;5.420;2022-08-06T13:01:26;102834.56;;;22.92;38.86
72110;BME280;59983;52.010;5.420;2022-08-06T13:04:13;102841.81;;;22.70;38.93
72110;BME280;59983;52.010;5.420;2022-08-06T13:06:43;102828.97;;;22.51;39.25
72110;BME280;59983;52.010;5.420;2022-08-06T13:09:15;102832.53;;;22.52;40.27
72110;BME280;59983;52.010;5.420;2022-08-06T13:11:43;102828.16;;;22.47;39.16
72110;BME280;59983;52.010;5.420;2022-08-06T13:14:17;102823.03;;;22.49;39.62
72110;BME280;59983;52.010;5.420;2022-08-06T13:16:47;102824.91;;;22.42;39.33
72110;BME280;59983;52.010;5.420;2022-08-06T13:19:22;102826.00;;;22.33;39.33
72110;BME280;59983;52.010;5.420;2022-08-06T13:22:05;102822.69;;;22.54;38.74
72110;BME280;59983;52.010;5.420;2022-08-06T13:24:34;102817.88;;;22.48;38.21
72110;BME280;59983;52.010;5.420;2022-08-06T13:27:02;102819.72;;;22.74;39.60
72110;BME280;59983;52.010;5.420;2022-08-06T13:29:33;102822.72;;;22.95;37.10
72110;BME280;59983;52.010;5.420;2022-08-06T13:32:24;102818.31;;;23.35;37.99
72110;BME280;59983;52.010;5.420;2022-08-06T13:35:07;102806.25;;;23.64;37.48
72110;BME280;59983;52.010;5.420;2022-08-06T13:37:50;102811.03;;;23.71;35.50
72110;BME280;59983;52.010;5.420;2022-08-06T13:43:16;102809.16;;;23.31;36.75
72110;BME280;59983;52.010;5.420;2022-08-06T13:46:11;102808.59;;;23.07;37.66
72110;BME280;59983;52.010;5.420;2022-08-06T13:48:44;102801.63;;;23.28;35.91
72110;BME280;59983;52.010;5.420;2022-08-06T13:51:13;102802.59;;;23.57;35.28
72110;BME280;59983;52.010;5.420;2022-08-06T13:53:53;102803.72;;;23.41;34.66
72110;BME280;59983;52.010;5.420;2022-08-06T13:56:23;102797.94;;;23.09;35.49
72110;BME280;59983;52.010;5.420;2022-08-06T13:58:58;102803.41;;;23.02;35.79
72110;BME280;59983;52.010;5.420;2022-08-06T14:01:24;102794.44;;;23.20;35.51
72110;BME280;59983;52.010;5.420;2022-08-06T14:04:10;102796.91;;;23.32;36.65
72110;BME280;59983;52.010;5.420;2022-08-06T14:06:39;102792.59;;;23.38;35.69
72110;BME280;59983;52.010;5.420;2022-08-06T14:09:11;102800.31;;;23.11;37.03
72110;BME280;59983;52.010;5.420;2022-08-06T14:11:48;102801.94;;;22.75;37.59
72110;BME280;59983;52.010;5.420;2022-08-06T14:14:18;102799.91;;;22.68;38.51
72110;BME280;59983;52.010;5.420;2022-08-06T14:16:48;102798.59;;;22.55;39.36
72110;BME280;59983;52.010;5.420;2022-08-06T14:19:15;102805.19;;;22.43;38.85
72110;BME280;59983;52.010;5.420;2022-08-06T14:22:02;102798.78;;;22.36;39.10
72110;BME280;59983;52.010;5.420;2022-08-06T14:24:29;102803.50;;;22.35;40.44
72110;BME280;59983;52.010;5.420;2022-08-06T14:27:02;102801.22;;;22.41;38.22
72110;BME280;59983;52.010;5.420;2022-08-06T14:29:43;102796.81;;;22.36;38.57
72110;BME280;59983;52.010;5.420;2022-08-06T14:32:30;102794.69;;;22.22;38.67
72110;BME280;59983;52.010;5.420;2022-08-06T14:34:57;102792.34;;;22.24;38.07
72110;BME280;59983;52.010;5.420;2022-08-06T14:37:30;102789.06;;;22.15;39.60
72110;BME280;59983;52.010;5.420;2022-08-06T14:40:16;102789.47;;;22.17;38.67